createdAt,value
2022-09-20T00:02:25.652Z,0.30
2022-09-20T00:07:24.475Z,0.40
2022-09-20T00:12:24.599Z,0.40
2022-09-20T00:17:23.401Z,0.28
2022-09-20T00:22:22.170Z,0.40
2022-09-20T00:27:20.990Z,0.30
2022-09-20T00:32:21.120Z,0.22
2022-09-20T00:37:19.825Z,0.35
2022-09-20T00:42:18.529Z,0.40
2022-09-20T00:47:33.072Z,0.40
2022-09-20T00:52:32.870Z,0.50
2022-09-20T00:57:35.476Z,0.40
2022-09-20T01:02:38.812Z,0.40
2022-09-20T01:07:38.303Z,1.00
2022-09-20T01:12:40.754Z,0.52
2022-09-20T01:17:44.147Z,0.70
2022-09-20T01:23:01.837Z,0.50
2022-09-20T01:28:02.054Z,0.60
2022-09-20T01:33:12.076Z,0.70
2022-09-20T01:38:28.290Z,0.60
2022-09-20T01:43:36.149Z,0.80
2022-09-20T01:48:39.666Z,0.70
2022-09-20T01:54:04.444Z,1.10
2022-09-20T01:59:39.390Z,0.90
2022-09-20T02:05:10.223Z,1.15
2022-09-20T02:10:32.524Z,1.38
2022-09-20T02:16:06.248Z,0.85
2022-09-20T02:21:11.694Z,1.20
2022-09-20T02:26:26.027Z,1.40
2022-09-20T02:31:52.890Z,1.10
2022-09-20T02:37:05.877Z,1.30
2022-09-20T02:42:12.953Z,1.50
2022-09-20T02:47:22.619Z,2.10
2022-09-20T02:52:31.901Z,1.90
2022-09-20T02:57:41.045Z,1.42
2022-09-20T03:02:52.758Z,1.63
2022-09-20T03:08:04.431Z,1.90
2022-09-20T03:13:15.155Z,1.67
2022-09-20T03:18:18.335Z,1.83
2022-09-20T03:28:43.733Z,1.92
2022-09-20T03:33:55.305Z,1.80
2022-09-20T03:39:12.459Z,1.88
2022-09-20T03:44:47.517Z,2.42
2022-09-20T03:49:58.685Z,2.65
2022-09-20T03:55:39.549Z,2.13
2022-09-20T04:00:53.173Z,2.25
2022-09-20T04:06:06.777Z,2.33
2022-09-20T04:11:11.873Z,2.40
2022-09-20T04:16:24.710Z,2.40
2022-09-20T04:21:33.100Z,2.47
2022-09-20T04:26:36.372Z,2.65
2022-09-20T04:36:58.386Z,4.40
2022-09-20T04:42:30.372Z,2.72
2022-09-20T04:47:57.498Z,2.63
2022-09-20T04:53:26.253Z,2.50
2022-09-20T04:58:40.643Z,2.53
2022-09-20T05:04:08.616Z,2.75
2022-09-20T05:09:29.552Z,3.20
2022-09-20T05:14:58.141Z,3.08
2022-09-20T05:20:31.157Z,2.30
2022-09-20T05:26:03.376Z,2.53
2022-09-20T05:31:08.098Z,2.60
2022-09-20T05:36:14.804Z,2.90
2022-09-20T05:41:24.950Z,3.10
2022-09-20T05:46:35.447Z,3.03
2022-09-20T05:51:49.957Z,3.22
2022-09-20T05:57:01.226Z,2.92
2022-09-20T06:02:13.385Z,3.13
2022-09-20T06:07:23.111Z,2.58
2022-09-20T06:12:52.952Z,2.50
2022-09-20T06:18:00.962Z,2.70
2022-09-20T06:23:02.080Z,2.20
2022-09-20T06:28:10.714Z,1.90
2022-09-20T06:33:17.896Z,2.47
2022-09-20T06:38:50.525Z,2.00
2022-09-20T06:43:50.952Z,2.10
2022-09-20T06:48:50.563Z,1.88
2022-09-20T06:53:49.668Z,1.85
2022-09-20T06:58:48.577Z,1.77
2022-09-20T07:03:49.000Z,1.75
2022-09-20T07:08:48.285Z,1.60
2022-09-20T07:13:52.435Z,1.60
2022-09-20T07:18:53.362Z,1.95
2022-09-20T07:23:54.065Z,1.42
2022-09-20T07:28:53.666Z,1.92
2022-09-20T07:33:56.638Z,1.58
2022-09-20T07:38:56.046Z,1.55
2022-09-20T07:43:54.865Z,1.55
2022-09-20T07:48:55.004Z,1.92
2022-09-20T07:53:55.991Z,1.98
2022-09-20T07:58:54.874Z,2.20
2022-09-20T08:03:55.151Z,1.58
2022-09-20T08:08:54.599Z,1.58
2022-09-20T08:14:10.259Z,1.40
2022-09-20T08:19:15.574Z,1.40
2022-09-20T08:24:16.661Z,1.33
2022-09-20T08:29:16.218Z,1.30
2022-09-20T08:34:17.790Z,1.05
2022-09-20T08:44:45.350Z,1.08
2022-09-20T08:49:46.568Z,1.17
2022-09-20T08:54:45.424Z,0.88
2022-09-20T08:59:44.421Z,1.00
2022-09-20T09:04:45.841Z,0.70
2022-09-20T09:09:47.820Z,0.90
2022-09-20T09:14:49.562Z,0.95
2022-09-20T09:19:51.853Z,0.83
2022-09-20T09:25:20.432Z,1.88
2022-09-20T09:30:22.729Z,1.42
2022-09-20T09:35:30.489Z,0.60
2022-09-20T09:40:31.840Z,0.95
2022-09-20T09:45:34.877Z,0.87
2022-09-20T09:50:35.887Z,0.40
2022-09-20T09:55:52.854Z,0.50
2022-09-20T10:00:54.245Z,0.30
2022-09-20T10:06:11.220Z,0.50
2022-09-20T10:11:24.357Z,0.70
2022-09-20T10:16:33.830Z,0.40
2022-09-20T10:21:48.918Z,0.50
2022-09-20T10:27:09.387Z,0.47
2022-09-20T10:32:21.230Z,0.40
2022-09-20T10:42:54.938Z,0.50
2022-09-20T10:48:02.641Z,0.40
2022-09-20T10:53:18.856Z,0.40
2022-09-20T10:58:43.857Z,0.25
2022-09-20T11:04:00.559Z,0.40
2022-09-20T11:09:04.980Z,0.50
2022-09-20T11:14:07.595Z,0.32
2022-09-20T11:19:16.361Z,0.30
2022-09-20T11:24:28.047Z,0.75
2022-09-20T11:34:34.544Z,0.15
2022-09-20T11:39:42.305Z,0.30
2022-09-20T11:44:42.550Z,0.10
2022-09-20T11:49:57.847Z,0.20
2022-09-20T11:55:15.449Z,0.30
2022-09-20T12:00:14.504Z,0.17
2022-09-20T12:05:28.013Z,0.57
2022-09-20T12:10:34.227Z,0.30
2022-09-20T12:15:36.949Z,0.32
2022-09-20T12:21:07.893Z,0.30
2022-09-20T12:26:11.112Z,0.30
2022-09-20T12:31:47.941Z,0.52
2022-09-20T12:37:20.336Z,0.20
2022-09-20T12:42:30.671Z,0.52
2022-09-20T12:47:31.930Z,0.13
2022-09-20T12:52:54.017Z,0.20
2022-09-20T12:57:56.594Z,0.40
2022-09-20T13:03:01.005Z,0.80
2022-09-20T13:08:03.993Z,0.30
2022-09-20T13:13:13.806Z,0.38
2022-09-20T13:18:15.652Z,0.20
2022-09-20T13:28:30.053Z,0.30
2022-09-20T13:33:28.874Z,0.50
2022-09-20T13:38:30.067Z,0.40
2022-09-20T13:43:34.678Z,0.37
2022-09-20T13:48:35.029Z,0.30
2022-09-20T13:53:42.994Z,0.20
2022-09-20T13:58:43.830Z,0.60
2022-09-20T14:03:46.271Z,0.52
2022-09-20T14:08:52.744Z,0.40
2022-09-20T14:13:58.181Z,0.47
2022-09-20T14:19:01.499Z,0.70
2022-09-20T14:24:07.992Z,0.32
2022-09-20T14:29:40.079Z,0.40
2022-09-20T14:34:39.940Z,0.80
2022-09-20T14:39:48.731Z,0.50
2022-09-20T14:44:52.886Z,1.75
2022-09-20T14:49:51.579Z,0.80
2022-09-20T14:54:59.928Z,0.40
2022-09-20T15:00:06.095Z,0.50
2022-09-20T15:05:05.199Z,0.80
2022-09-20T15:10:05.693Z,1.73
2022-09-20T15:15:07.244Z,0.85
2022-09-20T15:20:06.952Z,0.75
2022-09-20T15:25:06.538Z,0.98
2022-09-20T15:30:10.216Z,1.30
2022-09-20T15:35:09.883Z,1.40
2022-09-20T15:40:10.189Z,1.40
2022-09-20T15:45:12.358Z,1.67
2022-09-20T15:50:11.846Z,1.90
2022-09-20T15:55:11.039Z,1.40
2022-09-20T16:00:21.557Z,1.27
2022-09-20T16:05:20.770Z,1.25
2022-09-20T16:10:19.579Z,0.85
2022-09-20T16:15:19.724Z,0.45
2022-09-20T16:20:18.481Z,0.50
2022-09-20T16:25:17.367Z,1.00
2022-09-20T16:30:16.357Z,0.40
2022-09-20T16:35:16.897Z,0.43
2022-09-20T16:40:15.864Z,0.70
2022-09-20T16:45:23.289Z,1.00
2022-09-20T16:50:23.546Z,1.10
2022-09-20T16:55:22.488Z,0.90
2022-09-20T17:00:22.102Z,0.90
2022-09-20T17:05:20.814Z,0.70
2022-09-20T17:10:21.550Z,0.60
2022-09-20T17:15:20.305Z,0.60
2022-09-20T17:20:18.995Z,0.77
2022-09-20T17:25:17.760Z,0.57
2022-09-20T17:30:17.896Z,0.68
2022-09-20T17:35:18.596Z,0.77
2022-09-20T17:40:18.535Z,0.70
2022-09-20T17:45:18.801Z,0.70
2022-09-20T17:50:17.984Z,0.85
2022-09-20T17:55:17.880Z,1.05
2022-09-20T18:00:18.291Z,1.00
2022-09-20T18:05:18.751Z,0.95
2022-09-20T18:10:17.706Z,0.93
2022-09-20T18:15:16.556Z,0.98
2022-09-20T18:20:17.054Z,0.90
2022-09-20T18:25:16.007Z,1.05
2022-09-20T18:30:15.462Z,1.30
2022-09-20T18:35:14.345Z,1.25
2022-09-20T18:40:14.578Z,0.95
2022-09-20T18:45:13.955Z,0.90
2022-09-20T18:50:13.145Z,1.10
2022-09-20T18:55:12.757Z,0.95
2022-09-20T19:00:14.620Z,0.98
2022-09-20T19:05:23.732Z,1.13
2022-09-20T19:10:36.082Z,1.10
2022-09-20T19:15:51.393Z,1.15
2022-09-20T19:20:54.726Z,1.17
2022-09-20T19:26:10.438Z,2.38
2022-09-20T19:31:24.202Z,2.45
2022-09-20T19:41:39.901Z,2.25
2022-09-20T19:46:59.598Z,2.92
2022-09-20T19:52:05.406Z,2.33
2022-09-20T19:57:16.515Z,1.38
2022-09-20T20:02:21.043Z,1.57
2022-09-20T20:07:29.842Z,2.00
2022-09-20T20:12:37.139Z,2.40
2022-09-20T20:17:51.410Z,2.10
2022-09-20T20:23:21.654Z,1.70
2022-09-20T20:28:23.334Z,1.65
2022-09-20T20:33:23.709Z,1.33
2022-09-20T20:38:27.158Z,1.60
2022-09-20T20:43:28.045Z,2.05
2022-09-20T20:48:28.684Z,1.83
2022-09-20T20:53:31.548Z,1.70
2022-09-20T21:03:33.663Z,1.80
2022-09-20T21:08:34.348Z,1.77
2022-09-20T21:13:33.219Z,1.92
2022-09-20T21:18:33.981Z,1.90
2022-09-20T21:23:36.502Z,1.75
2022-09-20T21:28:36.973Z,2.22
2022-09-20T21:33:38.616Z,1.73
2022-09-20T21:38:37.611Z,2.10
2022-09-20T21:43:37.141Z,2.35
2022-09-20T21:48:37.505Z,1.55
2022-09-20T21:53:37.169Z,2.13
2022-09-20T21:58:36.256Z,2.08
2022-09-20T22:03:36.217Z,1.38
2022-09-20T22:08:37.718Z,1.58
2022-09-20T22:13:41.465Z,1.70
2022-09-20T22:18:41.892Z,2.20
2022-09-20T22:23:42.849Z,1.55
2022-09-20T22:28:43.086Z,1.75
2022-09-20T22:33:43.936Z,1.35
2022-09-20T22:38:45.576Z,1.20
2022-09-20T22:43:44.450Z,1.38
2022-09-20T22:48:43.987Z,1.65
2022-09-20T22:53:44.980Z,1.30
2022-09-20T22:58:45.390Z,1.40
2022-09-20T23:03:45.957Z,1.17
2022-09-20T23:08:46.174Z,1.40
2022-09-20T23:13:45.399Z,1.50
2022-09-20T23:18:44.245Z,1.58
2022-09-20T23:23:43.669Z,1.55
2022-09-20T23:28:45.621Z,0.80
2022-09-20T23:33:48.406Z,1.33
2022-09-20T23:38:47.937Z,1.10
2022-09-20T23:43:48.634Z,1.80
2022-09-20T23:48:47.636Z,1.20
2022-09-20T23:53:46.910Z,0.98
2022-09-20T23:58:47.148Z,1.25
